Time;durP1;ratioP1;P1;durP2;ratioP2;P2;SDS_P1;SDS_P2;PMS_P1;PMS_P2;Temp;Humidity;BMP_temperature;BMP_pressure;BME280_temperature;BME280_humidity;BME280_pressure;Samples;Min_cycle;Max_cycle;Signal;HPM_P1;HPM_P2
2022/03/27 00:00:18;;;;;;;21.33;15.15;;;13.50;62.30;;;;;;10902737;32;20339;-68
2022/03/27 00:06:20;;;;;;;24.55;16.75;;;13.50;62.40;;;;;;10906556;32;20019;-69
2022/03/27 00:12:22;;;;;;;17.98;14.80;;;13.30;62.40;;;;;;10906458;32;20046;-69
2022/03/27 00:18:24;;;;;;;21.62;16.62;;;13.20;62.90;;;;;;10906413;32;20046;-69
2022/03/27 00:24:27;;;;;;;30.30;23.45;;;13.20;62.90;;;;;;10903696;32;20050;-69
2022/03/27 00:30:30;;;;;;;20.42;16.83;;;13.30;63.30;;;;;;10901572;32;20046;-69
2022/03/27 00:36:33;;;;;;;39.47;27.85;;;13.30;63.20;;;;;;10905531;32;20023;-69
2022/03/27 00:42:36;;;;;;;40.83;31.37;;;13.30;63.70;;;;;;10905375;32;20204;-69
2022/03/27 00:48:39;;;;;;;23.48;18.48;;;13.20;63.70;;;;;;10891458;32;20031;-69
2022/03/27 00:54:40;;;;;;;21.77;14.68;;;13.20;63.60;;;;;;10905151;32;20339;-69
2022/03/27 01:00:47;;;;;;;22.90;16.77;;;13.00;63.60;;;;;;10904836;32;20027;-68
2022/03/27 01:06:49;;;;;;;32.15;22.15;;;12.90;63.50;;;;;;10904664;32;20035;-69
2022/03/27 01:12:52;;;;;;;26.40;18.02;;;12.80;64.10;;;;;;10904470;32;20049;-69
2022/03/27 01:18:54;;;;;;;35.90;28.90;;;12.70;64.50;;;;;;10902104;32;20050;-68
2022/03/27 01:24:56;;;;;;;38.40;32.58;;;12.70;64.50;;;;;;10904159;32;20053;-69
2022/03/27 01:31:07;;;;;;;23.42;17.95;;;12.70;64.70;;;;;;10901604;32;20019;-69
2022/03/27 01:37:10;;;;;;;32.60;23.17;;;12.60;64.70;;;;;;10911947;32;20331;-69
2022/03/27 01:43:12;;;;;;;30.40;21.55;;;12.40;64.90;;;;;;10916398;32;20316;-69
2022/03/27 01:49:16;;;;;;;32.45;25.02;;;12.40;65.40;;;;;;10914381;32;20058;-69
2022/03/27 01:55:18;;;;;;;39.58;29.23;;;12.40;65.70;;;;;;10902832;32;20065;-69
2022/03/27 02:01:21;;;;;;;30.10;22.35;;;12.40;66.40;;;;;;10916218;32;20023;-69
2022/03/27 02:07:23;;;;;;;29.65;20.88;;;12.20;67.80;;;;;;10915848;32;20336;-69
2022/03/27 02:13:25;;;;;;;30.88;23.50;;;12.00;68.40;;;;;;10915788;32;20019;-69
2022/03/27 02:19:27;;;;;;;37.80;27.20;;;11.80;69.30;;;;;;10913587;32;20019;-69
2022/03/27 02:25:30;;;;;;;32.85;24.55;;;11.90;68.60;;;;;;10913833;32;20035;-69
2022/03/27 02:31:32;;;;;;;31.33;26.90;;;12.00;68.10;;;;;;10915582;32;20011;-69
2022/03/27 02:37:37;;;;;;;34.80;23.62;;;12.00;68.00;;;;;;10915535;32;20046;-69
2022/03/27 02:43:39;;;;;;;30.30;21.30;;;12.00;68.40;;;;;;10913769;32;20062;-69
2022/03/27 02:49:41;;;;;;;38.17;29.58;;;11.80;69.20;;;;;;10905122;32;20038;-69
2022/03/27 02:55:43;;;;;;;23.12;16.85;;;11.70;70.10;;;;;;10895864;32;20050;-69
2022/03/27 03:01:46;;;;;;;27.42;20.62;;;11.40;70.90;;;;;;10895706;32;20042;-69
2022/03/27 03:07:49;;;;;;;32.15;23.85;;;11.30;71.10;;;;;;10908633;32;20050;-69
2022/03/27 03:13:52;;;;;;;33.00;23.08;;;11.20;70.40;;;;;;10895278;32;20049;-69
2022/03/27 03:19:54;;;;;;;21.60;16.23;;;11.10;71.00;;;;;;10908270;32;20050;-69
2022/03/27 03:25:56;;;;;;;21.62;17.42;;;11.20;70.70;;;;;;10903907;32;20046;-69
2022/03/27 03:32:11;;;;;;;18.55;13.80;;;11.20;70.30;;;;;;10904823;32;20023;-69
2022/03/27 03:38:13;;;;;;;35.42;29.65;;;11.10;69.80;;;;;;10906966;32;20027;-69
2022/03/27 03:44:15;;;;;;;25.45;19.02;;;11.00;70.10;;;;;;10894874;32;20074;-69
2022/03/27 03:50:17;;;;;;;24.48;16.70;;;10.70;70.20;;;;;;10907283;32;20054;-69
2022/03/27 03:56:19;;;;;;;31.05;21.87;;;10.70;70.60;;;;;;10906931;32;20058;-69
2022/03/27 04:02:21;;;;;;;22.52;15.57;;;10.70;70.50;;;;;;10893483;32;20031;-69
2022/03/27 04:08:23;;;;;;;26.85;19.75;;;10.80;70.80;;;;;;10906506;32;20019;-69
2022/03/27 04:14:26;;;;;;;18.77;13.70;;;10.70;70.70;;;;;;10902172;32;20023;-69
2022/03/27 04:20:28;;;;;;;22.15;16.25;;;10.70;70.80;;;;;;10904051;32;20394;-69
2022/03/27 04:26:30;;;;;;;35.30;24.92;;;10.60;70.80;;;;;;10905883;32;20053;-69
2022/03/27 04:32:32;;;;;;;27.02;17.40;;;10.80;70.90;;;;;;10901519;32;20015;-69
2022/03/27 04:38:34;;;;;;;31.25;23.87;;;10.90;71.20;;;;;;10905480;32;20055;-69
2022/03/27 04:44:36;;;;;;;20.12;15.18;;;10.90;70.30;;;;;;10903331;32;20035;-69
2022/03/27 04:50:39;;;;;;;25.67;18.92;;;10.80;70.00;;;;;;10905223;32;20039;-69
2022/03/27 04:56:41;;;;;;;23.40;17.83;;;10.70;70.00;;;;;;10898321;32;20061;-69
2022/03/27 05:02:44;;;;;;;22.37;14.57;;;10.80;69.80;;;;;;10904804;32;20093;-68
2022/03/27 05:08:46;;;;;;;23.50;19.62;;;10.60;69.60;;;;;;10904193;32;20026;-69
2022/03/27 05:14:48;;;;;;;23.62;18.02;;;10.50;69.90;;;;;;10900354;32;20477;-69
2022/03/27 05:20:51;;;;;;;24.00;17.48;;;10.50;70.00;;;;;;10904375;32;20293;-69
2022/03/27 05:26:53;;;;;;;20.88;13.23;;;10.50;69.60;;;;;;10903090;32;20058;-68
2022/03/27 05:32:55;;;;;;;28.05;21.73;;;10.20;69.60;;;;;;10902862;32;20039;-69
2022/03/27 05:38:58;;;;;;;21.15;14.82;;;10.20;69.80;;;;;;10903058;32;20049;-69
2022/03/27 05:45:00;;;;;;;32.17;24.23;;;10.30;69.40;;;;;;10899616;32;20391;-69
2022/03/27 05:51:03;;;;;;;28.70;23.62;;;10.40;69.60;;;;;;10903780;32;20024;-69
2022/03/27 05:57:05;;;;;;;29.67;24.08;;;10.50;69.60;;;;;;10900112;32;20054;-69
2022/03/27 06:03:08;;;;;;;23.42;15.10;;;10.60;69.40;;;;;;10903754;32;20027;-69
2022/03/27 06:09:10;;;;;;;22.00;16.37;;;10.70;69.20;;;;;;10903450;32;20024;-69
2022/03/27 06:15:14;;;;;;;19.62;14.52;;;10.70;68.90;;;;;;10903396;32;20031;-69
2022/03/27 06:21:16;;;;;;;19.33;14.70;;;10.80;68.80;;;;;;10904436;32;20015;-69
2022/03/27 06:27:19;;;;;;;19.42;14.00;;;10.80;68.90;;;;;;10910202;32;20331;-69
2022/03/27 06:33:21;;;;;;;20.20;16.20;;;10.70;69.00;;;;;;10910089;32;20027;-69
2022/03/27 06:39:23;;;;;;;20.77;16.60;;;10.90;69.10;;;;;;10909920;32;20117;-68
2022/03/27 06:45:25;;;;;;;22.87;14.68;;;11.00;68.90;;;;;;10906830;32;20133;-68
2022/03/27 06:51:27;;;;;;;24.35;18.55;;;11.20;68.80;;;;;;10909407;32;20023;-68
2022/03/27 06:57:30;;;;;;;24.25;15.57;;;11.30;68.70;;;;;;10908568;32;20049;-68
2022/03/27 07:03:32;;;;;;;20.80;15.10;;;11.50;68.40;;;;;;10908998;32;20331;-68
2022/03/27 07:09:34;;;;;;;25.05;18.75;;;11.60;68.20;;;;;;10908734;32;20019;-69
2022/03/27 07:15:37;;;;;;;18.83;14.38;;;11.70;68.30;;;;;;10908649;32;20316;-69
2022/03/27 07:21:40;;;;;;;18.15;14.57;;;11.80;68.00;;;;;;10610387;27;10003677;-69
2022/03/27 07:27:43;;;;;;;15.88;10.63;;;12.00;67.70;;;;;;10908110;32;20023;-68
2022/03/27 07:33:45;;;;;;;19.83;14.85;;;12.10;67.60;;;;;;10904896;32;20031;-69
2022/03/27 07:39:47;;;;;;;14.75;9.45;;;12.30;67.30;;;;;;10907721;32;20049;-69
2022/03/27 07:45:50;;;;;;;15.57;8.85;;;12.50;67.10;;;;;;10906030;32;20047;-69
2022/03/27 07:51:53;;;;;;;11.48;8.18;;;12.70;66.40;;;;;;10893263;32;20023;-69
2022/03/27 07:57:57;;;;;;;15.27;9.55;;;12.80;66.00;;;;;;10893447;32;20071;-69
2022/03/27 08:04:00;;;;;;;22.08;16.60;;;13.00;64.90;;;;;;10902259;32;20045;-69
2022/03/27 08:10:05;;;;;;;21.25;10.40;;;13.10;63.90;;;;;;10905868;32;20352;-69
2022/03/27 08:16:07;;;;;;;21.45;11.80;;;13.20;63.40;;;;;;10899983;32;20321;-69
2022/03/27 08:22:11;;;;;;;22.80;15.18;;;13.40;62.90;;;;;;10879049;32;20328;-68
2022/03/27 08:28:14;;;;;;;20.98;17.08;;;13.50;60.90;;;;;;10867052;32;20328;-69
2022/03/27 08:34:18;;;;;;;18.85;11.88;;;13.70;60.30;;;;;;10865646;32;20072;-69
2022/03/27 08:40:20;;;;;;;20.83;16.05;;;13.80;59.90;;;;;;10865720;32;20050;-69
2022/03/27 08:46:22;;;;;;;21.92;16.23;;;13.90;59.10;;;;;;10864431;32;20070;-69
2022/03/27 08:52:35;;;;;;;26.73;19.27;;;14.10;58.60;;;;;;10864056;32;20027;-69
2022/03/27 08:58:40;;;;;;;20.88;15.45;;;14.20;57.70;;;;;;10867642;32;20036;-68
2022/03/27 09:04:42;;;;;;;24.73;19.85;;;14.40;57.20;;;;;;10866767;32;20020;-68
2022/03/27 09:10:53;;;;;;;22.25;15.02;;;14.50;56.10;;;;;;10850168;32;20020;-68
2022/03/27 09:17:03;;;;;;;23.87;18.52;;;14.70;55.30;;;;;;10867041;32;20027;-69
2022/03/27 09:23:21;;;;;;;17.35;12.07;;;14.80;54.00;;;;;;10866972;32;20110;-69
2022/03/27 09:29:23;;;;;;;26.37;15.18;;;15.00;53.70;;;;;;10864202;32;20058;-69
2022/03/27 09:35:26;;;;;;;24.95;18.83;;;15.20;53.30;;;;;;10865815;32;20032;-69
2022/03/27 09:41:38;;;;;;;33.35;24.63;;;15.40;51.80;;;;;;10865290;32;20027;-69
2022/03/27 09:47:49;;;;;;;25.15;20.35;;;15.70;51.30;;;;;;10853382;32;20404;-69
2022/03/27 09:54:00;;;;;;;27.15;22.90;;;15.80;50.40;;;;;;10868095;32;20028;-69
2022/03/27 10:00:12;;;;;;;24.33;19.58;;;16.00;49.40;;;;;;10873773;32;20054;-69
2022/03/27 10:06:46;;;;;;;29.87;22.40;;;16.20;48.00;;;;;;10872927;32;20027;-69
2022/03/27 10:12:52;;;;;;;29.40;24.67;;;16.50;47.00;;;;;;10687305;33;20029;-69
2022/03/27 10:18:58;;;;;;;22.08;17.37;;;16.80;46.90;;;;;;10711822;33;20037;-69
2022/03/27 10:25:03;;;;;;;21.80;16.27;;;16.80;46.60;;;;;;10718291;33;20051;-68
2022/03/27 10:31:07;;;;;;;28.73;20.80;;;17.00;46.10;;;;;;10719254;33;20020;-69
2022/03/27 10:37:20;;;;;;;29.95;20.95;;;17.30;44.90;;;;;;10717622;33;20043;-70
2022/03/27 10:43:25;;;;;;;22.48;17.25;;;17.50;44.40;;;;;;10721267;33;20409;-69
2022/03/27 10:49:27;;;;;;;27.45;19.45;;;17.80;43.70;;;;;;10901962;32;20054;-69
2022/03/27 10:55:42;;;;;;;17.60;14.38;;;18.00;43.10;;;;;;10905266;32;20027;-69
2022/03/27 11:01:47;;;;;;;19.17;16.85;;;18.20;42.10;;;;;;10908247;32;20012;-69
2022/03/27 11:07:49;;;;;;;17.25;15.15;;;18.50;41.50;;;;;;10905129;32;20035;-69
2022/03/27 11:13:57;;;;;;;19.40;16.52;;;18.80;40.80;;;;;;10906687;32;20355;-69
2022/03/27 11:20:01;;;;;;;15.77;12.52;;;19.20;39.60;;;;;;10904907;32;20038;-69
2022/03/27 11:26:19;;;;;;;20.58;15.82;;;19.50;38.70;;;;;;10904288;32;20073;-69
2022/03/27 11:32:21;;;;;;;19.00;16.60;;;19.80;38.40;;;;;;10907943;32;20023;-69
2022/03/27 11:38:26;;;;;;;20.20;14.73;;;20.10;37.90;;;;;;10907610;32;20347;-69
2022/03/27 11:50:59;;;;;;;22.23;17.77;;;20.60;37.60;;;;;;10903736;32;20019;-68
2022/03/27 11:57:03;;;;;;;26.83;19.80;;;20.80;37.40;;;;;;10906723;32;20097;-69
2022/03/27 12:03:13;;;;;;;27.10;21.23;;;20.80;36.80;;;;;;10906704;32;20019;-69
2022/03/27 12:09:29;;;;;;;28.80;23.65;;;21.10;36.50;;;;;;10906502;32;20046;-69
2022/03/27 12:15:49;;;;;;;21.12;17.23;;;21.20;36.30;;;;;;10902401;32;20053;-69
2022/03/27 12:21:52;;;;;;;22.98;17.55;;;21.20;36.10;;;;;;10889534;32;20027;-69
2022/03/27 12:34:26;;;;;;;32.83;24.23;;;21.30;36.50;;;;;;10906066;32;20057;-69
2022/03/27 12:40:28;;;;;;;24.55;17.17;;;21.40;36.40;;;;;;10905835;32;20034;-70
2022/03/27 12:46:31;;;;;;;23.12;18.58;;;21.60;36.00;;;;;;10900950;32;20027;-69
2022/03/27 12:53:20;;;;;;;27.48;23.38;;;21.70;35.80;;;;;;10903366;32;20023;-70
2022/03/27 12:59:23;;;;;;;22.23;16.65;;;21.80;35.30;;;;;;10901715;32;20073;-69
2022/03/27 13:05:28;;;;;;;21.33;15.73;;;21.80;34.80;;;;;;10900863;32;20054;-69
2022/03/27 13:11:37;;;;;;;21.85;16.98;;;21.80;34.40;;;;;;10903728;32;20046;-70
2022/03/27 13:17:39;;;;;;;18.42;13.98;;;21.80;33.90;;;;;;10903258;32;20023;-69
2022/03/27 13:23:41;;;;;;;23.40;19.83;;;21.80;33.90;;;;;;10903796;32;20032;-70
2022/03/27 13:30:10;;;;;;;25.58;18.75;;;21.80;34.00;;;;;;10890700;32;20058;-70
2022/03/27 13:36:13;;;;;;;25.05;19.20;;;21.90;33.90;;;;;;10902174;32;20328;-70
2022/03/27 13:48:40;;;;;;;20.67;16.42;;;22.00;34.10;;;;;;10899200;32;20043;-70
2022/03/27 13:54:42;;;;;;;22.08;18.37;;;22.20;34.10;;;;;;10902182;32;20027;-70
2022/03/27 14:00:44;;;;;;;23.20;15.48;;;22.20;33.50;;;;;;10902179;32;20031;-69
2022/03/27 14:06:46;;;;;;;22.67;16.73;;;22.20;33.80;;;;;;10903554;32;20028;-70
2022/03/27 14:12:49;;;;;;;17.58;15.07;;;22.40;33.20;;;;;;10900344;32;20053;-70
2022/03/27 14:18:52;;;;;;;14.13;11.07;;;22.40;32.80;;;;;;10903000;32;20331;-70
2022/03/27 14:24:54;;;;;;;14.68;12.80;;;22.50;32.20;;;;;;10902935;32;20316;-69
2022/03/27 14:30:57;;;;;;;14.13;11.35;;;22.70;31.70;;;;;;10885302;32;20067;-70
2022/03/27 14:36:59;;;;;;;16.83;11.95;;;22.70;31.30;;;;;;10886429;32;20050;-69
2022/03/27 14:43:01;;;;;;;16.92;13.15;;;22.80;30.70;;;;;;10905400;32;20343;-70
2022/03/27 14:49:03;;;;;;;15.82;13.80;;;23.00;29.80;;;;;;10906633;32;20036;-70
2022/03/27 15:01:28;;;;;;;15.35;11.10;;;23.30;29.20;;;;;;10908664;32;20049;-70
2022/03/27 15:07:30;;;;;;;12.95;10.15;;;23.40;29.10;;;;;;10908774;32;20391;-70
2022/03/27 15:13:32;;;;;;;16.12;11.63;;;23.60;29.40;;;;;;10904014;32;20400;-69
2022/03/27 15:19:36;;;;;;;14.13;10.38;;;23.70;29.20;;;;;;10908192;27;20039;-70
2022/03/27 15:25:38;;;;;;;13.93;9.25;;;23.80;29.00;;;;;;10905531;32;20057;-69
2022/03/27 15:31:41;;;;;;;12.05;10.43;;;24.00;29.20;;;;;;10907797;32;20027;-70
2022/03/27 15:37:43;;;;;;;10.23;7.72;;;24.40;28.80;;;;;;10907347;32;20054;-70
2022/03/27 15:43:53;;;;;;;11.90;10.25;;;24.70;28.50;;;;;;10894224;32;20395;-69
2022/03/27 15:49:56;;;;;;;10.98;8.30;;;25.10;27.70;;;;;;10897559;32;20061;-70
2022/03/27 15:55:58;;;;;;;13.52;11.50;;;25.40;27.60;;;;;;10899428;32;20443;-70
2022/03/27 16:02:00;;;;;;;17.50;12.98;;;25.70;27.10;;;;;;10905452;32;20363;-70
2022/03/27 16:08:02;;;;;;;16.27;13.65;;;25.70;27.30;;;;;;10905715;32;20027;-70
2022/03/27 16:14:05;;;;;;;13.68;11.82;;;25.60;28.30;;;;;;10905602;32;20043;-70
2022/03/27 16:20:09;;;;;;;13.38;11.30;;;25.80;28.50;;;;;;10887651;32;20059;-70
2022/03/27 16:26:18;;;;;;;23.48;14.02;;;26.10;28.30;;;;;;10904878;32;20031;-70
2022/03/27 16:32:20;;;;;;;13.57;10.68;;;26.10;28.60;;;;;;10901513;32;20035;-70
2022/03/27 16:38:22;;;;;;;13.10;10.25;;;25.70;28.70;;;;;;10902198;32;20331;-71
2022/03/27 16:44:24;;;;;;;18.33;12.73;;;25.70;29.10;;;;;;10905775;32;20404;-70
2022/03/27 16:50:27;;;;;;;11.52;9.23;;;25.00;29.60;;;;;;10905179;32;20031;-70
2022/03/27 16:56:29;;;;;;;12.43;10.82;;;23.80;30.80;;;;;;10904104;32;20031;-70
2022/03/27 17:02:31;;;;;;;13.75;10.48;;;22.80;31.90;;;;;;10904091;32;20053;-70
2022/03/27 17:08:33;;;;;;;16.17;11.10;;;22.50;32.60;;;;;;10904861;32;20411;-70
2022/03/27 17:14:36;;;;;;;16.45;10.82;;;22.00;33.40;;;;;;10904715;32;20046;-70
2022/03/27 17:20:38;;;;;;;15.77;11.18;;;21.50;34.20;;;;;;10903957;32;20071;-70
2022/03/27 17:27:02;;;;;;;15.77;11.88;;;21.00;34.80;;;;;;10903320;32;20095;-70
2022/03/27 17:33:05;;;;;;;16.23;14.27;;;20.50;35.60;;;;;;10900783;32;20066;-70
2022/03/27 17:39:07;;;;;;;18.35;13.80;;;20.00;36.40;;;;;;10903873;32;20054;-70
2022/03/27 17:45:12;;;;;;;13.70;10.77;;;19.70;36.90;;;;;;10902406;32;20043;-69
2022/03/27 17:51:14;;;;;;;16.67;11.65;;;19.40;37.20;;;;;;10903865;32;20324;-70
2022/03/27 17:57:16;;;;;;;13.50;10.52;;;19.30;37.60;;;;;;10899412;32;20031;-70
2022/03/27 18:03:20;;;;;;;17.33;11.05;;;19.10;37.80;;;;;;10900554;32;20336;-70
2022/03/27 18:09:23;;;;;;;17.92;11.07;;;18.90;38.10;;;;;;10903543;32;20454;-70
2022/03/27 18:15:25;;;;;;;13.73;10.48;;;18.70;38.40;;;;;;10901725;32;20053;-69
2022/03/27 18:21:27;;;;;;;15.50;11.25;;;18.50;39.00;;;;;;10910503;32;20059;-69
2022/03/27 18:27:49;;;;;;;17.05;12.65;;;18.30;39.30;;;;;;10908299;32;20070;-69
2022/03/27 18:33:52;;;;;;;14.82;11.77;;;18.30;39.70;;;;;;10905936;32;20307;-70
2022/03/27 18:39:55;;;;;;;13.77;10.98;;;18.10;40.00;;;;;;10893085;32;20053;-69
2022/03/27 18:45:58;;;;;;;14.35;11.98;;;18.00;40.30;;;;;;10906409;32;20074;-69
2022/03/27 18:52:24;;;;;;;15.43;11.93;;;17.80;40.60;;;;;;10906948;32;20044;-70
2022/03/27 18:58:55;;;;;;;17.27;13.18;;;17.70;41.10;;;;;;10909345;32;20031;-69
2022/03/27 19:04:57;;;;;;;17.40;11.65;;;17.60;41.70;;;;;;10909096;32;20019;-69
2022/03/27 19:10:59;;;;;;;16.08;12.85;;;17.50;42.20;;;;;;10905263;32;20027;-69
2022/03/27 19:17:02;;;;;;;19.58;15.93;;;17.30;42.70;;;;;;10908600;32;20027;-69
2022/03/27 19:23:10;;;;;;;20.17;16.80;;;17.20;43.50;;;;;;10908477;32;20031;-69
2022/03/27 19:29:21;;;;;;;17.87;14.53;;;17.00;43.80;;;;;;10907688;32;20057;-70
2022/03/27 19:35:25;;;;;;;18.20;14.20;;;16.80;44.00;;;;;;10908092;32;20020;-69
2022/03/27 19:41:41;;;;;;;23.38;19.12;;;16.70;44.60;;;;;;10894763;32;20042;-69
2022/03/27 19:47:43;;;;;;;20.35;15.38;;;16.60;45.50;;;;;;10907584;32;20027;-69
2022/03/27 19:53:45;;;;;;;18.52;15.43;;;16.50;46.00;;;;;;10903198;32;20027;-69
2022/03/27 19:59:52;;;;;;;18.42;14.32;;;16.30;46.20;;;;;;10906715;32;20051;-69
2022/03/27 20:05:55;;;;;;;17.75;15.57;;;16.20;46.70;;;;;;10906862;32;20053;-69
2022/03/27 20:11:57;;;;;;;29.02;24.75;;;16.10;47.20;;;;;;10906663;32;20020;-69
2022/03/27 20:17:59;;;;;;;21.77;17.90;;;15.90;48.40;;;;;;10890859;32;20024;-69
2022/03/27 20:24:01;;;;;;;23.67;18.85;;;15.60;49.60;;;;;;10903768;32;20015;-69
2022/03/27 20:30:13;;;;;;;17.62;15.75;;;15.50;50.10;;;;;;10903033;32;20046;-69
2022/03/27 20:36:15;;;;;;;21.80;17.62;;;15.50;50.10;;;;;;10901679;32;20058;-69
2022/03/27 20:42:17;;;;;;;16.02;14.43;;;15.60;50.10;;;;;;10904994;32;20054;-69
2022/03/27 20:48:20;;;;;;;21.65;16.90;;;15.50;50.40;;;;;;10901180;32;20031;-69
2022/03/27 20:54:23;;;;;;;24.12;20.23;;;15.50;50.80;;;;;;10901056;32;20023;-69
2022/03/27 21:00:25;;;;;;;18.08;14.18;;;15.50;51.20;;;;;;10891804;32;20016;-69
2022/03/27 21:06:28;;;;;;;17.12;12.68;;;15.40;51.50;;;;;;10902574;32;20055;-69
2022/03/27 21:12:30;;;;;;;18.95;15.57;;;15.20;51.70;;;;;;10904787;32;20023;-69
2022/03/27 21:18:32;;;;;;;18.80;12.70;;;15.20;51.90;;;;;;10904460;32;20023;-69
2022/03/27 21:24:34;;;;;;;18.85;15.07;;;15.10;52.10;;;;;;10902633;32;20437;-69
2022/03/27 21:30:55;;;;;;;20.10;14.32;;;15.00;52.30;;;;;;10904256;32;20058;-69
2022/03/27 21:36:57;;;;;;;22.13;15.13;;;14.90;52.60;;;;;;10904234;32;20396;-69
2022/03/27 21:43:00;;;;;;;16.92;13.20;;;14.90;53.00;;;;;;10904115;32;20399;-69
2022/03/27 21:49:02;;;;;;;26.58;17.70;;;14.90;53.10;;;;;;10890505;32;20301;-69
2022/03/27 21:55:27;;;;;;;25.48;21.58;;;14.80;53.40;;;;;;10911588;32;20027;-69
2022/03/27 22:01:29;;;;;;;23.58;17.50;;;14.80;54.10;;;;;;10911455;32;20288;-69
2022/03/27 22:08:22;;;;;;;31.73;25.08;;;14.70;54.30;;;;;;10911049;32;20027;-69
2022/03/27 22:14:24;;;;;;;25.80;19.30;;;14.60;54.90;;;;;;10906761;32;20050;-69
2022/03/27 22:20:27;;;;;;;21.62;15.65;;;14.60;55.00;;;;;;10910735;32;20057;-69
2022/03/27 22:26:30;;;;;;;19.25;14.27;;;14.50;55.20;;;;;;10910343;32;20023;-69
2022/03/27 22:32:32;;;;;;;19.08;14.43;;;14.40;55.50;;;;;;10906332;32;20433;-69
2022/03/27 22:38:35;;;;;;;19.00;13.82;;;14.30;55.60;;;;;;10910121;32;20023;-69
2022/03/27 22:44:37;;;;;;;17.55;14.05;;;14.20;55.80;;;;;;10909784;32;20027;-69
2022/03/27 22:50:39;;;;;;;19.15;13.23;;;14.20;56.00;;;;;;10909567;32;20054;-69
2022/03/27 22:56:41;;;;;;;17.65;14.70;;;14.10;56.20;;;;;;10905359;32;20049;-69
2022/03/27 23:02:46;;;;;;;27.33;24.27;;;14.00;56.40;;;;;;10906043;32;20050;-69
2022/03/27 23:08:48;;;;;;;20.50;16.12;;;14.00;57.00;;;;;;10904810;32;20371;-69
2022/03/27 23:14:50;;;;;;;29.17;22.90;;;13.90;57.60;;;;;;10908976;32;20309;-69
2022/03/27 23:20:53;;;;;;;37.88;28.05;;;13.90;57.60;;;;;;10911132;27;20038;-69
2022/03/27 23:26:55;;;;;;;27.77;19.40;;;13.80;57.70;;;;;;10908312;32;20044;-69
2022/03/27 23:32:57;;;;;;;26.77;18.50;;;13.60;58.50;;;;;;10908219;32;20031;-69
2022/03/27 23:38:59;;;;;;;21.40;16.25;;;13.60;59.20;;;;;;10908022;32;20031;-69
2022/03/27 23:45:01;;;;;;;22.60;18.70;;;13.60;60.00;;;;;;10905696;32;20336;-69
2022/03/27 23:51:04;;;;;;;23.17;17.92;;;13.50;60.10;;;;;;10907431;32;20031;-69
2022/03/27 23:57:23;;;;;;;28.02;21.67;;;13.50;60.40;;;;;;10907313;32;20442;-69
